Terminal Aerodrome Forecast
Issued by NWS

Home | Current Version | Previous Version | Text Only | Print | Product List | Glossary On
Versions: 1 2 3 4 5 6 7 8 9 10 11 12 13 14
093
FTUS45 KABQ 272340
TAFTCC
TAF
KTCC 272340Z 2800/2824 26011KT P6SM FEW110
     FM280200 35016G26KT P6SM FEW250
     FM280400 03025G35KT P6SM BKN040
     FM280800 03015G25KT P6SM SCT040
     FM281100 03010KT P6SM FEW040
     FM282000 07008KT P6SM FEW090=

USA.gov is the U.S. government's official web portal to all federal, state and local government web resources and services.